createdAt,value
2022-09-17T00:04:33.038Z,98144.96
2022-09-17T00:05:40.148Z,98146.70
2022-09-17T00:06:49.345Z,98146.55
2022-09-17T00:07:55.856Z,98142.09
2022-09-17T00:09:02.806Z,98139.68
2022-09-17T00:10:09.568Z,98142.12
2022-09-17T00:13:34.190Z,98140.33
2022-09-17T00:19:11.660Z,98155.94
2022-09-17T00:20:24.377Z,98152.90
2022-09-17T00:27:55.218Z,98151.80
2022-09-17T00:29:44.700Z,98152.73
2022-09-17T00:31:01.594Z,98150.34
2022-09-17T00:34:21.882Z,98149.66
2022-09-17T00:35:50.064Z,98148.38
2022-09-17T00:37:21.877Z,98152.65
2022-09-17T00:39:33.614Z,98149.55
2022-09-17T00:42:56.308Z,98156.75
2022-09-17T00:45:01.115Z,98155.60
2022-09-17T00:46:25.019Z,98159.86
2022-09-17T00:47:40.168Z,98158.58
2022-09-17T00:48:47.049Z,98158.66
2022-09-17T00:50:19.102Z,98157.55
2022-09-17T00:52:01.076Z,98156.89
2022-09-17T00:53:21.433Z,98161.98
2022-09-17T00:54:29.889Z,98166.19
2022-09-17T00:55:44.982Z,98167.55
2022-09-17T00:56:52.778Z,98166.39
2022-09-17T00:58:00.470Z,98166.71
2022-09-17T00:59:08.044Z,98163.56
2022-09-17T01:00:16.427Z,98167.89
2022-09-17T01:01:41.787Z,98168.04
2022-09-17T01:03:06.204Z,98166.48
2022-09-17T01:04:22.002Z,98166.34
2022-09-17T01:05:37.222Z,98169.92
2022-09-17T01:07:23.044Z,98168.29
2022-09-17T01:08:49.894Z,98167.29
2022-09-17T01:10:18.863Z,98169.50
2022-09-17T01:11:59.842Z,98165.98
2022-09-17T01:13:39.226Z,98165.28
2022-09-17T01:14:54.591Z,98165.55
2022-09-17T01:16:50.090Z,98171.31
2022-09-17T01:18:36.588Z,98170.91
2022-09-17T01:20:19.847Z,98170.89
2022-09-17T01:21:42.334Z,98170.01
2022-09-17T01:23:23.079Z,98169.81
2022-09-17T01:24:48.951Z,98172.20
2022-09-17T01:26:04.753Z,98168.92
2022-09-17T01:27:49.911Z,98168.80
2022-09-17T01:29:07.113Z,98166.99
2022-09-17T01:30:30.260Z,98168.23
2022-09-17T01:32:21.225Z,98166.38
2022-09-17T01:33:37.977Z,98165.73
2022-09-17T01:35:02.682Z,98168.38
2022-09-17T01:36:12.172Z,98168.16
2022-09-17T01:37:38.942Z,98175.23
2022-09-17T01:38:50.486Z,98172.65
2022-09-17T01:40:18.256Z,98174.23
2022-09-17T01:41:49.496Z,98173.26
2022-09-17T01:43:25.476Z,98177.42
2022-09-17T01:44:56.767Z,98176.14
2022-09-17T01:46:19.532Z,98179.01
2022-09-17T01:47:31.062Z,98178.27
2022-09-17T01:48:44.916Z,98180.79
2022-09-17T01:49:55.479Z,98180.59
2022-09-17T01:51:38.464Z,98178.84
2022-09-17T01:52:47.195Z,98179.31
2022-09-17T01:53:59.152Z,98182.84
2022-09-17T01:55:14.110Z,98183.81
2022-09-17T01:56:26.258Z,98181.13
2022-09-17T01:57:51.075Z,98183.63
2022-09-17T01:59:05.305Z,98184.92
2022-09-17T02:02:10.050Z,98192.14
2022-09-17T02:03:42.075Z,98193.58
2022-09-17T02:05:01.118Z,98193.09
2022-09-17T02:06:09.998Z,98193.33
2022-09-17T02:07:23.531Z,98191.09
2022-09-17T02:08:39.298Z,98192.73
2022-09-17T02:10:29.138Z,98191.36
2022-09-17T02:13:59.562Z,98192.45
2022-09-17T02:15:15.781Z,98190.43
2022-09-17T02:16:29.939Z,98194.51
2022-09-17T02:17:55.986Z,98194.16
2022-09-17T02:19:13.387Z,98194.85
2022-09-17T02:20:23.373Z,98190.69
2022-09-17T02:23:46.566Z,98193.89
2022-09-17T02:25:30.007Z,98196.67
2022-09-17T02:27:44.390Z,98199.95
2022-09-17T02:29:02.193Z,98200.52
2022-09-17T02:30:14.147Z,98200.01
2022-09-17T02:31:35.173Z,98202.79
2022-09-17T02:33:01.799Z,98205.65
2022-09-17T02:34:11.830Z,98207.89
2022-09-17T02:35:21.811Z,98207.06
2022-09-17T02:36:28.359Z,98205.02
2022-09-17T02:37:34.380Z,98207.80
2022-09-17T02:38:40.350Z,98206.80
2022-09-17T02:39:46.411Z,98206.77
2022-09-17T02:40:55.338Z,98206.88
2022-09-17T02:42:28.751Z,98205.73
2022-09-17T02:43:43.674Z,98206.27
2022-09-17T02:45:11.027Z,98210.02
2022-09-17T02:46:35.443Z,98209.52
2022-09-17T02:48:18.223Z,98211.88
2022-09-17T02:49:35.125Z,98217.25
2022-09-17T02:50:47.923Z,98216.80
2022-09-17T02:52:21.322Z,98218.02
2022-09-17T02:54:03.845Z,98224.30
2022-09-17T02:55:37.484Z,98225.88
2022-09-17T02:56:49.619Z,98224.55
2022-09-17T02:58:00.482Z,98225.75
2022-09-17T02:59:44.582Z,98231.31
2022-09-17T03:00:50.739Z,98233.23
2022-09-17T03:02:18.616Z,98229.02
2022-09-17T03:03:40.677Z,98232.09
2022-09-17T03:04:47.518Z,98232.30
2022-09-17T03:05:53.952Z,98234.14
2022-09-17T03:07:01.375Z,98234.14
2022-09-17T03:08:09.503Z,98235.10
2022-09-17T03:09:17.886Z,98236.83
2022-09-17T03:10:25.503Z,98241.67
2022-09-17T03:11:31.848Z,98241.98
2022-09-17T03:12:42.603Z,98245.06
2022-09-17T03:13:52.762Z,98244.46
2022-09-17T03:14:58.708Z,98244.46
2022-09-17T03:16:07.758Z,98244.97
2022-09-17T03:17:15.458Z,98248.05
2022-09-17T03:18:23.799Z,98245.18
2022-09-17T03:19:30.713Z,98247.10
2022-09-17T03:20:39.811Z,98245.34
2022-09-17T03:24:02.969Z,98250.23
2022-09-17T03:25:15.859Z,98252.16
2022-09-17T03:26:26.674Z,98251.77
2022-09-17T03:27:46.775Z,98251.52
2022-09-17T03:28:54.535Z,98252.73
2022-09-17T03:30:03.598Z,98253.64
2022-09-17T03:31:20.583Z,98252.73
2022-09-17T03:32:46.365Z,98254.13
2022-09-17T03:33:54.461Z,98260.52
2022-09-17T03:35:07.182Z,98263.73
2022-09-17T03:36:32.990Z,98264.52
2022-09-17T03:37:52.901Z,98265.48
2022-09-17T03:39:14.088Z,98266.46
2022-09-17T03:42:31.287Z,98265.53
2022-09-17T03:43:38.023Z,98264.54
2022-09-17T03:45:29.150Z,98265.98
2022-09-17T03:46:51.543Z,98265.91
2022-09-17T03:48:10.007Z,98267.73
2022-09-17T03:49:20.835Z,98272.77
2022-09-17T03:50:32.363Z,98274.78
2022-09-17T03:51:52.550Z,98276.39
2022-09-17T03:53:05.458Z,98276.25
2022-09-17T03:54:28.524Z,98275.98
2022-09-17T03:56:10.471Z,98275.05
2022-09-17T03:57:19.049Z,98278.29
2022-09-17T04:01:10.432Z,98279.38
2022-09-17T04:04:29.779Z,98281.73
2022-09-17T04:05:45.413Z,98281.48
2022-09-17T04:08:52.016Z,98292.05
2022-09-17T04:10:21.376Z,98291.48
2022-09-17T04:11:29.765Z,98288.86
2022-09-17T04:14:14.747Z,98290.09
2022-09-17T04:16:14.856Z,98290.42
2022-09-17T04:17:32.700Z,98286.75
2022-09-17T04:18:41.460Z,98287.36
2022-09-17T04:19:48.970Z,98288.06
2022-09-17T04:21:25.489Z,98289.52
2022-09-17T04:23:04.374Z,98291.77
2022-09-17T04:24:15.274Z,98292.86
2022-09-17T04:27:10.888Z,98294.50
2022-09-17T04:28:22.511Z,98292.69
2022-09-17T04:29:36.906Z,98292.92
2022-09-17T04:30:55.881Z,98291.86
2022-09-17T04:32:03.685Z,98296.27
2022-09-17T04:33:17.905Z,98294.10
2022-09-17T04:34:48.440Z,98294.67
2022-09-17T04:35:55.424Z,98295.29
2022-09-17T04:37:04.465Z,98298.13
2022-09-17T04:38:34.167Z,98297.55
2022-09-17T04:39:43.334Z,98295.77
2022-09-17T04:41:01.846Z,98297.70
2022-09-17T04:42:20.492Z,98298.66
2022-09-17T04:43:51.184Z,98300.31
2022-09-17T04:45:14.559Z,98297.51
2022-09-17T04:46:25.177Z,98298.42
2022-09-17T04:47:34.721Z,98298.07
2022-09-17T04:48:44.724Z,98296.13
2022-09-17T04:49:57.806Z,98295.08
2022-09-17T04:51:11.663Z,98297.51
2022-09-17T04:54:14.339Z,98290.52
2022-09-17T04:55:21.703Z,98291.73
2022-09-17T04:56:29.106Z,98291.37
2022-09-17T04:58:01.099Z,98288.23
2022-09-17T04:59:13.017Z,98289.40
2022-09-17T05:00:22.960Z,98289.33
2022-09-17T05:01:32.499Z,98291.52
2022-09-17T05:02:40.399Z,98291.23
2022-09-17T05:03:47.352Z,98290.50
2022-09-17T05:04:53.581Z,98289.20
2022-09-17T05:06:01.158Z,98287.44
2022-09-17T05:07:10.914Z,98287.12
2022-09-17T05:08:20.244Z,98288.50
2022-09-17T05:09:28.551Z,98292.42
2022-09-17T05:10:35.876Z,98294.98
2022-09-17T05:11:42.279Z,98295.63
2022-09-17T05:12:55.325Z,98296.07
2022-09-17T05:14:04.856Z,98296.35
2022-09-17T05:15:14.918Z,98297.42
2022-09-17T05:16:26.705Z,98298.75
2022-09-17T05:17:35.188Z,98298.55
2022-09-17T05:18:45.849Z,98296.86
2022-09-17T05:20:06.677Z,98299.09
2022-09-17T05:21:17.520Z,98298.27
2022-09-17T05:22:48.972Z,98295.44
2022-09-17T05:24:28.624Z,98295.02
2022-09-17T05:26:15.633Z,98297.23
2022-09-17T05:27:32.361Z,98293.69
2022-09-17T05:28:47.210Z,98293.44
2022-09-17T05:29:57.967Z,98291.01
2022-09-17T05:31:07.346Z,98290.46
2022-09-17T05:32:14.963Z,98293.09
2022-09-17T05:33:22.287Z,98290.38
2022-09-17T05:34:29.320Z,98291.02
2022-09-17T05:35:38.360Z,98289.44
2022-09-17T05:36:48.231Z,98290.46
2022-09-17T05:38:17.438Z,98290.34
2022-09-17T05:39:26.450Z,98292.81
2022-09-17T05:40:36.757Z,98289.81
2022-09-17T05:41:42.871Z,98292.80
2022-09-17T05:42:49.471Z,98289.69
2022-09-17T05:43:55.371Z,98287.13
2022-09-17T05:45:01.728Z,98287.00
2022-09-17T05:46:08.103Z,98288.85
2022-09-17T05:47:14.579Z,98284.89
2022-09-17T05:48:23.292Z,98289.22
2022-09-17T05:49:29.264Z,98289.02
2022-09-17T05:50:35.914Z,98290.11
2022-09-17T05:51:42.161Z,98289.74
2022-09-17T05:52:49.133Z,98288.21
2022-09-17T05:53:56.943Z,98290.44
2022-09-17T05:55:04.305Z,98289.43
2022-09-17T05:56:10.327Z,98292.92
2022-09-17T05:57:16.799Z,98294.59
2022-09-17T05:58:23.885Z,98293.91
2022-09-17T05:59:29.567Z,98295.49
2022-09-17T06:00:35.350Z,98293.26
2022-09-17T06:01:41.649Z,98292.63
2022-09-17T06:02:47.489Z,98291.52
2022-09-17T06:03:53.601Z,98290.10
2022-09-17T06:05:02.892Z,98294.36
2022-09-17T06:06:11.199Z,98292.98
2022-09-17T06:07:17.187Z,98292.74
2022-09-17T06:08:23.979Z,98292.27
2022-09-17T06:09:29.806Z,98293.63
2022-09-17T06:10:38.062Z,98294.88
2022-09-17T06:11:43.912Z,98291.64
2022-09-17T06:12:50.891Z,98291.05
2022-09-17T06:13:57.463Z,98292.22
2022-09-17T06:15:05.109Z,98294.27
2022-09-17T06:16:13.798Z,98294.46
2022-09-17T06:17:22.177Z,98294.95
2022-09-17T06:18:29.548Z,98293.50
2022-09-17T06:19:35.480Z,98292.59
2022-09-17T06:20:42.415Z,98292.27
2022-09-17T06:21:51.007Z,98294.16
2022-09-17T06:23:03.027Z,98291.67
2022-09-17T06:24:08.731Z,98289.98
2022-09-17T06:25:15.766Z,98289.10
2022-09-17T06:26:22.083Z,98290.77
2022-09-17T06:27:37.297Z,98290.43
2022-09-17T06:28:43.237Z,98285.83
2022-09-17T06:29:49.437Z,98286.30
2022-09-17T06:30:58.318Z,98286.06
2022-09-17T06:32:04.541Z,98286.23
2022-09-17T06:33:10.752Z,98286.14
2022-09-17T06:34:16.849Z,98285.53
2022-09-17T06:35:24.090Z,98281.34
2022-09-17T06:36:30.860Z,98279.92
2022-09-17T06:37:41.210Z,98279.77
2022-09-17T06:38:48.841Z,98279.61
2022-09-17T06:39:55.693Z,98278.66
2022-09-17T06:41:02.838Z,98278.79
2022-09-17T06:42:11.056Z,98277.70
2022-09-17T06:43:18.569Z,98275.79
2022-09-17T06:44:24.985Z,98274.09
2022-09-17T06:45:32.531Z,98276.06
2022-09-17T06:46:38.525Z,98275.55
2022-09-17T06:47:47.450Z,98277.15
2022-09-17T06:48:55.283Z,98275.33
2022-09-17T06:50:02.308Z,98275.37
2022-09-17T06:51:09.784Z,98274.22
2022-09-17T06:52:16.927Z,98276.20
2022-09-17T06:53:24.633Z,98274.23
2022-09-17T06:54:31.944Z,98274.54
2022-09-17T06:55:37.879Z,98271.07
2022-09-17T06:56:46.391Z,98270.17
2022-09-17T06:57:55.169Z,98269.94
2022-09-17T06:59:00.860Z,98271.96
2022-09-17T07:00:08.100Z,98270.36
2022-09-17T07:01:14.288Z,98268.27
2022-09-17T07:02:20.361Z,98264.83
2022-09-17T07:03:26.418Z,98267.02
2022-09-17T07:04:32.423Z,98267.53
2022-09-17T07:05:38.430Z,98267.55
2022-09-17T07:06:45.396Z,98267.45
2022-09-17T07:07:51.979Z,98264.48
2022-09-17T07:08:57.706Z,98269.02
2022-09-17T07:10:06.447Z,98268.39
2022-09-17T07:11:12.131Z,98264.60
2022-09-17T07:12:19.348Z,98262.56
2022-09-17T07:13:25.981Z,98261.38
2022-09-17T07:14:35.126Z,98264.29
2022-09-17T07:15:42.498Z,98266.02
2022-09-17T07:16:49.300Z,98267.65
2022-09-17T07:17:55.234Z,98267.20
2022-09-17T07:19:01.229Z,98268.02
2022-09-17T07:20:08.837Z,98266.40
2022-09-17T07:21:15.756Z,98264.41
2022-09-17T07:22:23.029Z,98265.30
2022-09-17T07:23:34.670Z,98266.14
2022-09-17T07:24:41.592Z,98264.54
2022-09-17T07:25:53.999Z,98264.50
2022-09-17T07:27:01.629Z,98261.42
2022-09-17T07:28:10.179Z,98257.38
2022-09-17T07:29:17.264Z,98257.95
2022-09-17T07:30:27.275Z,98256.13
2022-09-17T07:31:34.266Z,98259.07
2022-09-17T07:32:40.717Z,98257.58
2022-09-17T07:33:49.637Z,98256.37
2022-09-17T07:34:57.477Z,98255.16
2022-09-17T07:36:07.389Z,98253.59
2022-09-17T07:37:13.784Z,98250.81
2022-09-17T07:38:21.179Z,98252.17
2022-09-17T07:39:27.103Z,98252.06
2022-09-17T07:40:35.885Z,98250.00
2022-09-17T07:41:43.000Z,98249.01
2022-09-17T07:42:48.953Z,98247.75
2022-09-17T07:43:57.662Z,98249.30
2022-09-17T07:45:03.992Z,98247.80
2022-09-17T07:46:21.728Z,98248.14
2022-09-17T07:47:27.897Z,98248.77
2022-09-17T07:48:33.925Z,98247.27
2022-09-17T07:49:39.699Z,98246.30
2022-09-17T07:50:45.613Z,98244.05
2022-09-17T07:51:52.935Z,98243.37
2022-09-17T07:52:59.885Z,98241.95
2022-09-17T07:54:06.987Z,98243.73
2022-09-17T07:55:13.226Z,98243.98
2022-09-17T07:56:19.279Z,98245.11
2022-09-17T07:57:25.500Z,98246.16
2022-09-17T07:58:37.870Z,98245.05
2022-09-17T07:59:45.119Z,98239.40
2022-09-17T08:00:51.780Z,98239.63
2022-09-17T08:01:59.859Z,98241.08
2022-09-17T08:03:07.402Z,98240.40
2022-09-17T08:04:13.597Z,98240.09
2022-09-17T08:05:19.518Z,98241.38
2022-09-17T08:06:29.084Z,98240.73
2022-09-17T08:07:34.841Z,98236.96
2022-09-17T08:08:44.439Z,98239.39
2022-09-17T08:09:51.522Z,98239.11
2022-09-17T08:11:02.349Z,98237.73
2022-09-17T08:12:09.444Z,98235.50
2022-09-17T08:13:16.408Z,98232.81
2022-09-17T08:14:28.415Z,98233.65
2022-09-17T08:15:37.238Z,98232.32
2022-09-17T08:16:47.047Z,98233.82
2022-09-17T08:17:55.197Z,98231.89
2022-09-17T08:19:04.351Z,98235.23
2022-09-17T08:20:13.462Z,98232.70
2022-09-17T08:21:20.260Z,98231.74
2022-09-17T08:22:29.822Z,98231.42
2022-09-17T08:23:38.893Z,98231.05
2022-09-17T08:24:46.100Z,98229.16
2022-09-17T08:25:55.864Z,98228.73
2022-09-17T08:27:01.722Z,98229.94
2022-09-17T08:28:09.269Z,98227.44
2022-09-17T08:29:16.736Z,98228.55
2022-09-17T08:30:24.563Z,98228.22
2022-09-17T08:31:33.981Z,98225.02
2022-09-17T08:32:41.627Z,98226.63
2022-09-17T08:33:47.271Z,98222.06
2022-09-17T08:34:58.301Z,98224.59
2022-09-17T08:36:04.762Z,98222.04
2022-09-17T08:37:11.885Z,98222.61
2022-09-17T08:38:19.351Z,98223.02
2022-09-17T08:39:25.416Z,98218.70
2022-09-17T08:40:32.960Z,98217.09
2022-09-17T08:41:44.036Z,98213.70
2022-09-17T08:43:03.043Z,98210.95
2022-09-17T08:44:16.125Z,98210.46
2022-09-17T08:45:21.771Z,98209.12
2022-09-17T08:46:33.666Z,98209.28
2022-09-17T08:47:40.328Z,98208.02
2022-09-17T08:49:03.714Z,98206.71
2022-09-17T08:50:15.407Z,98205.06
2022-09-17T08:51:42.754Z,98201.70
2022-09-17T08:53:19.115Z,98200.80
2022-09-17T08:54:28.914Z,98200.23
2022-09-17T08:55:58.186Z,98197.06
2022-09-17T08:57:32.856Z,98194.84
2022-09-17T08:58:53.882Z,98193.23
2022-09-17T09:00:14.401Z,98196.09
2022-09-17T09:01:23.333Z,98194.40
2022-09-17T09:02:52.850Z,98193.95
2022-09-17T09:04:17.168Z,98194.98
2022-09-17T09:05:39.870Z,98193.39
2022-09-17T09:06:53.021Z,98192.15
2022-09-17T09:08:14.807Z,98193.11
2022-09-17T09:09:22.905Z,98189.77
2022-09-17T09:10:31.710Z,98195.20
2022-09-17T09:11:37.914Z,98195.42
2022-09-17T09:12:45.196Z,98196.51
2022-09-17T09:14:17.980Z,98195.66
2022-09-17T09:15:45.533Z,98193.52
2022-09-17T09:16:54.950Z,98196.48
2022-09-17T09:18:19.283Z,98192.64
2022-09-17T09:19:25.964Z,98194.73
2022-09-17T09:20:56.307Z,98197.55
2022-09-17T09:22:48.997Z,98196.83
2022-09-17T09:24:29.999Z,98196.36
2022-09-17T09:25:43.452Z,98193.04
2022-09-17T09:27:03.368Z,98188.01
2022-09-17T09:28:13.147Z,98188.04
2022-09-17T09:29:40.085Z,98188.70
2022-09-17T09:31:24.628Z,98189.90
2022-09-17T09:33:08.025Z,98189.33
2022-09-17T09:34:16.689Z,98188.09
2022-09-17T09:35:34.781Z,98186.08
2022-09-17T09:36:41.796Z,98189.21
2022-09-17T09:38:24.855Z,98187.64
2022-09-17T09:39:41.421Z,98190.02
2022-09-17T09:41:10.801Z,98187.84
2022-09-17T09:42:31.615Z,98188.36
2022-09-17T09:44:03.635Z,98188.72
2022-09-17T09:45:42.558Z,98190.05
2022-09-17T09:47:14.096Z,98187.55
2022-09-17T09:48:24.667Z,98188.41
2022-09-17T09:49:46.366Z,98188.32
2022-09-17T09:51:25.757Z,98186.90
2022-09-17T09:53:06.204Z,98189.43
2022-09-17T09:54:33.761Z,98189.81
2022-09-17T09:56:20.294Z,98192.14
2022-09-17T09:57:44.973Z,98193.45
2022-09-17T09:58:52.651Z,98195.75
2022-09-17T10:00:31.876Z,98194.39
2022-09-17T10:01:40.321Z,98193.90
2022-09-17T10:02:46.529Z,98194.70
2022-09-17T10:03:56.920Z,98192.02
2022-09-17T10:05:10.638Z,98190.98
2022-09-17T10:06:16.789Z,98193.23
2022-09-17T10:07:25.497Z,98193.82
2022-09-17T10:08:36.544Z,98194.29
2022-09-17T10:09:47.421Z,98195.76
2022-09-17T10:11:22.818Z,98193.73
2022-09-17T10:12:32.612Z,98194.85
2022-09-17T10:13:38.817Z,98195.34
2022-09-17T10:14:46.529Z,98196.30
2022-09-17T10:15:52.702Z,98196.50
2022-09-17T10:17:27.094Z,98195.17
2022-09-17T10:18:35.868Z,98195.48
2022-09-17T10:19:42.201Z,98196.23
2022-09-17T10:20:54.878Z,98196.19
2022-09-17T10:22:00.879Z,98199.04
2022-09-17T10:23:07.807Z,98199.48
2022-09-17T10:24:32.772Z,98195.85
2022-09-17T10:25:45.849Z,98192.59
2022-09-17T10:26:51.729Z,98192.55
2022-09-17T10:27:58.652Z,98193.73
2022-09-17T10:29:15.567Z,98191.58
2022-09-17T10:30:24.898Z,98192.82
2022-09-17T10:31:49.602Z,98196.85
2022-09-17T10:33:17.683Z,98196.92
2022-09-17T10:34:30.054Z,98198.04
2022-09-17T10:35:37.885Z,98192.96
2022-09-17T10:36:45.001Z,98191.79
2022-09-17T10:37:51.403Z,98194.05
2022-09-17T10:38:57.418Z,98195.27
2022-09-17T10:40:17.634Z,98196.00
2022-09-17T10:41:25.469Z,98197.02
2022-09-17T10:42:32.982Z,98197.67
2022-09-17T10:43:39.428Z,98194.21
2022-09-17T10:45:02.667Z,98193.40
2022-09-17T10:46:11.442Z,98189.73
2022-09-17T10:47:30.297Z,98188.73
2022-09-17T10:48:45.796Z,98188.58
2022-09-17T10:50:03.963Z,98188.90
2022-09-17T10:51:10.736Z,98192.48
2022-09-17T10:52:31.098Z,98193.85
2022-09-17T10:53:54.238Z,98193.33
2022-09-17T10:55:30.425Z,98190.66
2022-09-17T10:56:37.608Z,98192.39
2022-09-17T10:57:51.878Z,98190.09
2022-09-17T10:59:22.544Z,98191.19
2022-09-17T11:00:29.370Z,98187.58
2022-09-17T11:01:59.579Z,98188.45
2022-09-17T11:03:27.882Z,98188.98
2022-09-17T11:04:57.022Z,98191.08
2022-09-17T11:06:39.981Z,98192.85
2022-09-17T11:07:49.730Z,98196.66
2022-09-17T11:09:15.329Z,98194.08
2022-09-17T11:10:43.456Z,98191.55
2022-09-17T11:12:03.811Z,98195.10
2022-09-17T11:13:37.723Z,98195.27
2022-09-17T11:15:01.448Z,98196.29
2022-09-17T11:16:55.053Z,98196.06
2022-09-17T11:18:28.441Z,98197.06
2022-09-17T11:19:39.811Z,98194.38
2022-09-17T11:21:17.154Z,98196.88
2022-09-17T11:22:46.752Z,98198.63
2022-09-17T11:23:58.908Z,98194.54
2022-09-17T11:25:23.283Z,98195.73
2022-09-17T11:27:02.967Z,98195.36
2022-09-17T11:28:37.070Z,98196.52
2022-09-17T11:30:11.441Z,98195.98
2022-09-17T11:31:41.494Z,98193.83
2022-09-17T11:33:08.012Z,98192.89
2022-09-17T11:34:48.447Z,98191.94
2022-09-17T11:36:01.012Z,98192.90
2022-09-17T11:37:14.217Z,98189.58
2022-09-17T11:38:26.573Z,98192.03
2022-09-17T11:39:46.725Z,98193.69
2022-09-17T11:40:54.995Z,98192.48
2022-09-17T11:42:03.993Z,98191.14
2022-09-17T11:43:39.324Z,98191.64
2022-09-17T11:45:13.123Z,98195.70
2022-09-17T11:46:28.097Z,98192.61
2022-09-17T11:47:39.283Z,98193.77
2022-09-17T11:49:07.055Z,98192.40
2022-09-17T11:50:26.170Z,98190.97
2022-09-17T11:51:38.659Z,98192.21
2022-09-17T11:53:09.184Z,98190.01
2022-09-17T11:54:27.263Z,98191.33
2022-09-17T11:56:19.500Z,98192.89
2022-09-17T11:57:33.409Z,98195.84
2022-09-17T11:58:45.879Z,98191.97
2022-09-17T12:00:19.035Z,98194.23
2022-09-17T12:02:07.654Z,98196.14
2022-09-17T12:03:17.908Z,98200.55
2022-09-17T12:04:44.334Z,98197.91
2022-09-17T12:05:58.367Z,98199.95
2022-09-17T12:07:25.046Z,98200.37
2022-09-17T12:09:02.773Z,98203.04
2022-09-17T12:10:30.488Z,98202.64
2022-09-17T12:11:58.358Z,98201.65
2022-09-17T12:13:19.096Z,98201.86
2022-09-17T12:14:27.903Z,98202.39
2022-09-17T12:15:35.347Z,98203.72
2022-09-17T12:16:45.850Z,98205.09
2022-09-17T12:18:34.105Z,98204.30
2022-09-17T12:19:49.353Z,98199.94
2022-09-17T12:20:55.927Z,98202.34
2022-09-17T12:22:09.850Z,98203.59
2022-09-17T12:23:23.112Z,98206.86
2022-09-17T12:24:32.514Z,98207.50
2022-09-17T12:26:11.650Z,98207.95
2022-09-17T12:27:51.914Z,98205.86
2022-09-17T12:29:14.654Z,98206.02
2022-09-17T12:30:23.625Z,98208.86
2022-09-17T12:31:50.454Z,98206.89
2022-09-17T12:32:59.592Z,98209.21
2022-09-17T12:34:48.921Z,98209.09
2022-09-17T12:36:04.932Z,98206.09
2022-09-17T12:37:36.592Z,98206.96
2022-09-17T12:39:07.354Z,98206.05
2022-09-17T12:40:38.285Z,98209.17
2022-09-17T12:42:21.574Z,98208.15
2022-09-17T12:43:40.571Z,98210.52
2022-09-17T12:44:52.147Z,98210.71
2022-09-17T12:46:02.119Z,98206.91
2022-09-17T12:47:37.317Z,98206.66
2022-09-17T12:49:06.186Z,98206.81
2022-09-17T12:50:50.538Z,98206.30
2022-09-17T12:52:02.783Z,98207.73
2022-09-17T12:53:44.341Z,98207.63
2022-09-17T12:55:19.778Z,98208.66
2022-09-17T12:56:54.567Z,98209.10
2022-09-17T12:58:35.235Z,98207.72
2022-09-17T12:59:47.962Z,98212.02
2022-09-17T13:01:15.610Z,98211.77
2022-09-17T13:02:28.623Z,98213.56
2022-09-17T13:04:49.884Z,98216.19
2022-09-17T13:06:26.444Z,98221.34
2022-09-17T13:07:47.138Z,98223.64
2022-09-17T13:08:58.453Z,98224.14
2022-09-17T13:10:25.739Z,98225.04
2022-09-17T13:11:42.082Z,98227.62
2022-09-17T13:13:24.686Z,98231.79
2022-09-17T13:14:38.240Z,98233.03
2022-09-17T13:16:14.325Z,98233.85
2022-09-17T13:18:22.960Z,98238.83
2022-09-17T13:20:15.352Z,98239.05
2022-09-17T13:21:33.617Z,98242.39
2022-09-17T13:22:50.346Z,98242.08
2022-09-17T13:23:57.244Z,98245.57
2022-09-17T13:25:08.546Z,98244.58
2022-09-17T13:26:20.285Z,98247.95
2022-09-17T13:27:28.473Z,98251.33
2022-09-17T13:28:51.524Z,98249.74
2022-09-17T13:30:05.275Z,98250.39
2022-09-17T13:31:13.193Z,98250.30
2022-09-17T13:32:36.020Z,98250.70
2022-09-17T13:34:03.643Z,98254.19
2022-09-17T13:35:10.633Z,98253.95
2022-09-17T13:36:55.976Z,98256.31
2022-09-17T13:38:02.296Z,98255.31
2022-09-17T13:39:33.170Z,98260.48
2022-09-17T13:40:39.628Z,98257.44
2022-09-17T13:41:47.196Z,98261.63
2022-09-17T13:42:58.362Z,98261.65
2022-09-17T13:44:08.015Z,98259.34
2022-09-17T13:45:20.950Z,98260.06
2022-09-17T13:46:30.050Z,98263.34
2022-09-17T13:48:00.448Z,98261.32
2022-09-17T13:49:13.141Z,98261.48
2022-09-17T13:50:31.268Z,98263.46
2022-09-17T13:51:40.349Z,98263.53
2022-09-17T13:52:47.906Z,98263.82
2022-09-17T13:53:55.277Z,98263.26
2022-09-17T13:55:03.440Z,98269.17
2022-09-17T13:56:33.294Z,98266.96
2022-09-17T13:57:48.710Z,98268.58
2022-09-17T13:58:55.305Z,98268.60
2022-09-17T14:00:01.921Z,98267.89
2022-09-17T14:01:18.992Z,98266.09
2022-09-17T14:02:32.477Z,98270.75
2022-09-17T14:03:49.327Z,98271.84
2022-09-17T14:05:36.733Z,98272.73
2022-09-17T14:06:46.890Z,98277.58
2022-09-17T14:07:53.324Z,98277.84
2022-09-17T14:09:01.341Z,98279.00
2022-09-17T14:10:14.419Z,98279.04
2022-09-17T14:11:30.410Z,98279.89
2022-09-17T14:13:25.459Z,98282.43
2022-09-17T14:14:42.535Z,98281.14
2022-09-17T14:15:48.820Z,98284.19
2022-09-17T14:16:55.274Z,98283.04
2022-09-17T14:18:04.856Z,98286.63
2022-09-17T14:19:39.325Z,98285.77
2022-09-17T14:20:46.072Z,98281.65
2022-09-17T14:22:13.406Z,98280.77
2022-09-17T14:23:20.812Z,98280.80
2022-09-17T14:24:38.110Z,98278.23
2022-09-17T14:25:54.163Z,98282.30
2022-09-17T14:27:28.311Z,98284.23
2022-09-17T14:29:06.577Z,98286.71
2022-09-17T14:30:32.424Z,98288.92
2022-09-17T14:31:39.665Z,98290.70
2022-09-17T14:33:03.115Z,98295.02
2022-09-17T14:34:12.344Z,98294.96
2022-09-17T14:35:42.241Z,98295.30
2022-09-17T14:36:49.785Z,98296.85
2022-09-17T14:38:01.811Z,98299.83
2022-09-17T14:39:12.294Z,98302.40
2022-09-17T14:40:20.770Z,98303.75
2022-09-17T14:41:35.048Z,98303.34
2022-09-17T14:42:43.133Z,98304.10
2022-09-17T14:43:55.813Z,98304.13
2022-09-17T14:45:23.828Z,98304.89
2022-09-17T14:46:45.130Z,98304.38
2022-09-17T14:48:39.477Z,98305.75
2022-09-17T14:49:47.690Z,98306.38
2022-09-17T14:50:54.176Z,98305.93
2022-09-17T14:52:00.293Z,98302.13
2022-09-17T14:53:09.903Z,98299.73
2022-09-17T14:54:36.285Z,98299.80
2022-09-17T14:55:45.707Z,98301.73
2022-09-17T14:56:58.584Z,98300.96
2022-09-17T14:58:06.443Z,98301.70
2022-09-17T14:59:25.329Z,98302.71
2022-09-17T15:00:36.921Z,98303.08
2022-09-17T15:01:47.816Z,98304.77
2022-09-17T15:03:00.428Z,98306.56
2022-09-17T15:04:16.060Z,98306.73
2022-09-17T15:05:27.567Z,98307.77
2022-09-17T15:06:34.141Z,98308.76
2022-09-17T15:07:44.826Z,98312.20
2022-09-17T15:08:53.069Z,98309.17
2022-09-17T15:10:14.860Z,98311.17
2022-09-17T15:11:24.076Z,98311.91
2022-09-17T15:12:31.079Z,98316.97
2022-09-17T15:13:53.701Z,98316.33
2022-09-17T15:15:00.190Z,98318.94
2022-09-17T15:16:31.639Z,98319.83
2022-09-17T15:17:38.567Z,98325.33
2022-09-17T15:18:54.401Z,98326.54
2022-09-17T15:20:00.677Z,98324.94
2022-09-17T15:21:13.644Z,98327.45
2022-09-17T15:22:31.367Z,98328.23
2022-09-17T15:23:39.917Z,98327.80
2022-09-17T15:24:52.063Z,98329.77
2022-09-17T15:25:58.942Z,98330.35
2022-09-17T15:27:30.638Z,98333.73
2022-09-17T15:28:38.293Z,98332.93
2022-09-17T15:29:46.586Z,98336.61
2022-09-17T15:30:52.928Z,98340.08
2022-09-17T15:32:00.288Z,98337.14
2022-09-17T15:33:06.471Z,98338.96
2022-09-17T15:34:14.301Z,98339.52
2022-09-17T15:35:35.020Z,98340.46
2022-09-17T15:36:42.128Z,98340.84
2022-09-17T15:38:21.704Z,98337.63
2022-09-17T15:39:42.939Z,98337.01
2022-09-17T15:40:48.813Z,98338.33
2022-09-17T15:42:01.460Z,98341.33
2022-09-17T15:43:34.391Z,98340.33